sensor_id;sensor_type;location;lat;lon;timestamp;temperature;humidity
46283;DHT22;32017;43.700;11.820;2023-02-18T00:00:26;2.60;99.90
46283;DHT22;32017;43.700;11.820;2023-02-18T00:02:46;2.30;99.90
46283;DHT22;32017;43.700;11.820;2023-02-18T00:05:06;2.30;99.90
46283;DHT22;32017;43.700;11.820;2023-02-18T00:07:26;2.20;99.90
46283;DHT22;32017;43.700;11.820;2023-02-18T00:09:46;2.10;99.90
46283;DHT22;32017;43.700;11.820;2023-02-18T00:12:06;2.10;99.90
46283;DHT22;32017;43.700;11.820;2023-02-18T00:14:26;2.10;99.90
46283;DHT22;32017;43.700;11.820;2023-02-18T00:16:46;2.10;99.90
46283;DHT22;32017;43.700;11.820;2023-02-18T00:19:17;2.20;99.90
46283;DHT22;32017;43.700;11.820;2023-02-18T00:21:38;2.30;99.90
46283;DHT22;32017;43.700;11.820;2023-02-18T00:23:58;2.40;99.90
46283;DHT22;32017;43.700;11.820;2023-02-18T00:26:19;2.50;99.90
46283;DHT22;32017;43.700;11.820;2023-02-18T00:28:39;2.50;99.90
46283;DHT22;32017;43.700;11.820;2023-02-18T00:31:04;2.50;99.90
46283;DHT22;32017;43.700;11.820;2023-02-18T00:33:24;2.40;99.90
46283;DHT22;32017;43.700;11.820;2023-02-18T00:35:44;2.50;99.90
46283;DHT22;32017;43.700;11.820;2023-02-18T00:38:04;2.70;99.90
46283;DHT22;32017;43.700;11.820;2023-02-18T00:40:24;2.80;99.90
46283;DHT22;32017;43.700;11.820;2023-02-18T00:42:44;2.70;99.90
46283;DHT22;32017;43.700;11.820;2023-02-18T00:45:04;2.60;99.90
46283;DHT22;32017;43.700;11.820;2023-02-18T00:47:24;2.50;99.90
46283;DHT22;32017;43.700;11.820;2023-02-18T00:49:44;2.50;99.90
46283;DHT22;32017;43.700;11.820;2023-02-18T00:52:04;2.40;99.90
46283;DHT22;32017;43.700;11.820;2023-02-18T00:54:24;2.50;99.90
46283;DHT22;32017;43.700;11.820;2023-02-18T00:56:44;2.40;99.90
46283;DHT22;32017;43.700;11.820;2023-02-18T00:59:05;2.30;99.90
46283;DHT22;32017;43.700;11.820;2023-02-18T01:01:25;2.50;99.90
46283;DHT22;32017;43.700;11.820;2023-02-18T01:03:46;2.50;99.90
46283;DHT22;32017;43.700;11.820;2023-02-18T01:06:08;2.60;99.90
46283;DHT22;32017;43.700;11.820;2023-02-18T01:08:28;2.40;99.90
46283;DHT22;32017;43.700;11.820;2023-02-18T01:10:53;2.30;99.90
46283;DHT22;32017;43.700;11.820;2023-02-18T01:13:14;2.30;99.90
46283;DHT22;32017;43.700;11.820;2023-02-18T01:15:34;2.10;99.90
46283;DHT22;32017;43.700;11.820;2023-02-18T01:17:54;1.80;99.90
46283;DHT22;32017;43.700;11.820;2023-02-18T01:20:15;1.80;99.90
46283;DHT22;32017;43.700;11.820;2023-02-18T01:22:35;1.80;99.90
46283;DHT22;32017;43.700;11.820;2023-02-18T01:24:55;1.80;99.90
46283;DHT22;32017;43.700;11.820;2023-02-18T01:27:15;1.80;99.90
46283;DHT22;32017;43.700;11.820;2023-02-18T01:29:35;1.70;99.90
46283;DHT22;32017;43.700;11.820;2023-02-18T01:31:56;1.80;99.90
46283;DHT22;32017;43.700;11.820;2023-02-18T01:34:16;1.80;99.90
46283;DHT22;32017;43.700;11.820;2023-02-18T01:36:36;1.80;99.90
46283;DHT22;32017;43.700;11.820;2023-02-18T01:38:56;1.70;99.90
46283;DHT22;32017;43.700;11.820;2023-02-18T01:41:16;1.80;99.90
46283;DHT22;32017;43.700;11.820;2023-02-18T01:43:36;1.90;99.90
46283;DHT22;32017;43.700;11.820;2023-02-18T01:46:09;2.00;99.90
46283;DHT22;32017;43.700;11.820;2023-02-18T01:48:50;2.00;99.90
46283;DHT22;32017;43.700;11.820;2023-02-18T01:53:56;1.90;99.90
46283;DHT22;32017;43.700;11.820;2023-02-18T01:56:26;2.00;99.90
46283;DHT22;32017;43.700;11.820;2023-02-18T01:58:47;2.00;99.90
46283;DHT22;32017;43.700;11.820;2023-02-18T02:01:08;2.00;99.90
46283;DHT22;32017;43.700;11.820;2023-02-18T02:03:29;2.10;99.90
46283;DHT22;32017;43.700;11.820;2023-02-18T02:05:49;2.20;99.90
46283;DHT22;32017;43.700;11.820;2023-02-18T02:08:09;2.10;99.90
46283;DHT22;32017;43.700;11.820;2023-02-18T02:16:54;1.50;99.90
46283;DHT22;32017;43.700;11.820;2023-02-18T02:30:39;1.70;99.90
46283;DHT22;32017;43.700;11.820;2023-02-18T02:36:25;1.90;99.90
46283;DHT22;32017;43.700;11.820;2023-02-18T02:41:36;1.60;99.90
46283;DHT22;32017;43.700;11.820;2023-02-18T02:46:43;1.60;99.90
46283;DHT22;32017;43.700;11.820;2023-02-18T02:52:07;1.40;99.90
46283;DHT22;32017;43.700;11.820;2023-02-18T02:54:29;1.50;99.90
46283;DHT22;32017;43.700;11.820;2023-02-18T02:57:00;1.50;99.90
46283;DHT22;32017;43.700;11.820;2023-02-18T02:59:24;1.60;99.90
46283;DHT22;32017;43.700;11.820;2023-02-18T03:02:00;1.30;99.90
46283;DHT22;32017;43.700;11.820;2023-02-18T03:04:49;1.30;99.90
46283;DHT22;32017;43.700;11.820;2023-02-18T03:15:42;1.30;99.90
46283;DHT22;32017;43.700;11.820;2023-02-18T03:20:57;1.10;99.90
46283;DHT22;32017;43.700;11.820;2023-02-18T03:23:26;1.00;99.90
46283;DHT22;32017;43.700;11.820;2023-02-18T03:25:49;0.90;99.90
46283;DHT22;32017;43.700;11.820;2023-02-18T03:28:16;0.80;99.90
46283;DHT22;32017;43.700;11.820;2023-02-18T03:30:49;0.70;99.90
46283;DHT22;32017;43.700;11.820;2023-02-18T03:33:10;0.80;99.90
46283;DHT22;32017;43.700;11.820;2023-02-18T03:35:35;0.70;99.90
46283;DHT22;32017;43.700;11.820;2023-02-18T03:40:25;0.70;99.90
46283;DHT22;32017;43.700;11.820;2023-02-18T03:42:45;0.70;99.90
46283;DHT22;32017;43.700;11.820;2023-02-18T03:45:05;0.60;99.90
46283;DHT22;32017;43.700;11.820;2023-02-18T03:47:26;0.70;99.90
46283;DHT22;32017;43.700;11.820;2023-02-18T03:49:46;0.60;99.90
46283;DHT22;32017;43.700;11.820;2023-02-18T03:52:05;0.70;99.90
46283;DHT22;32017;43.700;11.820;2023-02-18T03:54:25;0.60;99.90
46283;DHT22;32017;43.700;11.820;2023-02-18T03:56:45;0.50;99.90
46283;DHT22;32017;43.700;11.820;2023-02-18T03:59:05;0.60;99.90
46283;DHT22;32017;43.700;11.820;2023-02-18T04:01:25;0.60;99.90
46283;DHT22;32017;43.700;11.820;2023-02-18T04:03:45;0.60;99.90
46283;DHT22;32017;43.700;11.820;2023-02-18T04:06:06;0.60;99.90
46283;DHT22;32017;43.700;11.820;2023-02-18T04:08:27;0.60;99.90
46283;DHT22;32017;43.700;11.820;2023-02-18T04:10:46;0.50;99.90
46283;DHT22;32017;43.700;11.820;2023-02-18T04:13:07;0.50;99.90
46283;DHT22;32017;43.700;11.820;2023-02-18T04:15:26;0.50;99.90
46283;DHT22;32017;43.700;11.820;2023-02-18T04:17:46;0.50;99.90
46283;DHT22;32017;43.700;11.820;2023-02-18T04:20:07;0.40;99.90
46283;DHT22;32017;43.700;11.820;2023-02-18T04:22:28;0.50;99.90
46283;DHT22;32017;43.700;11.820;2023-02-18T04:24:48;0.40;99.90
46283;DHT22;32017;43.700;11.820;2023-02-18T04:27:07;0.50;99.90
46283;DHT22;32017;43.700;11.820;2023-02-18T04:29:27;0.50;99.90
46283;DHT22;32017;43.700;11.820;2023-02-18T04:31:48;0.50;99.90
46283;DHT22;32017;43.700;11.820;2023-02-18T04:34:08;0.50;99.90
46283;DHT22;32017;43.700;11.820;2023-02-18T04:36:29;0.20;99.90
46283;DHT22;32017;43.700;11.820;2023-02-18T04:38:48;0.40;99.90
46283;DHT22;32017;43.700;11.820;2023-02-18T04:41:08;0.30;99.90
46283;DHT22;32017;43.700;11.820;2023-02-18T04:43:29;0.30;99.90
46283;DHT22;32017;43.700;11.820;2023-02-18T04:45:49;0.30;99.90
46283;DHT22;32017;43.700;11.820;2023-02-18T04:48:09;0.20;99.90
46283;DHT22;32017;43.700;11.820;2023-02-18T04:50:28;0.20;99.90
46283;DHT22;32017;43.700;11.820;2023-02-18T04:52:48;0.20;99.90
46283;DHT22;32017;43.700;11.820;2023-02-18T04:55:08;0.30;99.90
46283;DHT22;32017;43.700;11.820;2023-02-18T04:57:28;0.30;99.90
46283;DHT22;32017;43.700;11.820;2023-02-18T04:59:48;0.30;99.90
46283;DHT22;32017;43.700;11.820;2023-02-18T05:02:08;0.30;99.90
46283;DHT22;32017;43.700;11.820;2023-02-18T05:04:28;0.30;99.90
46283;DHT22;32017;43.700;11.820;2023-02-18T05:06:49;0.30;99.90
46283;DHT22;32017;43.700;11.820;2023-02-18T05:09:09;0.30;99.90
46283;DHT22;32017;43.700;11.820;2023-02-18T05:11:29;0.40;99.90
46283;DHT22;32017;43.700;11.820;2023-02-18T05:13:49;0.20;99.90
46283;DHT22;32017;43.700;11.820;2023-02-18T05:16:09;0.00;99.90
46283;DHT22;32017;43.700;11.820;2023-02-18T05:18:30;-0.10;99.90
46283;DHT22;32017;43.700;11.820;2023-02-18T05:20:50;-0.10;99.90
46283;DHT22;32017;43.700;11.820;2023-02-18T05:23:09;-0.10;99.90
46283;DHT22;32017;43.700;11.820;2023-02-18T05:25:29;-0.10;99.90
46283;DHT22;32017;43.700;11.820;2023-02-18T05:27:49;0.00;99.90
46283;DHT22;32017;43.700;11.820;2023-02-18T05:30:09;0.00;99.90
46283;DHT22;32017;43.700;11.820;2023-02-18T05:32:30;0.00;99.90
46283;DHT22;32017;43.700;11.820;2023-02-18T05:34:50;0.00;99.90
46283;DHT22;32017;43.700;11.820;2023-02-18T05:37:10;-0.10;99.90
46283;DHT22;32017;43.700;11.820;2023-02-18T05:39:32;-0.10;99.90
46283;DHT22;32017;43.700;11.820;2023-02-18T05:41:52;-0.20;99.90
46283;DHT22;32017;43.700;11.820;2023-02-18T05:44:12;-0.20;99.90
46283;DHT22;32017;43.700;11.820;2023-02-18T05:46:50;-0.10;99.90
46283;DHT22;32017;43.700;11.820;2023-02-18T05:49:10;-0.10;99.90
46283;DHT22;32017;43.700;11.820;2023-02-18T05:51:30;-0.20;99.90
46283;DHT22;32017;43.700;11.820;2023-02-18T05:53:50;-0.20;99.90
46283;DHT22;32017;43.700;11.820;2023-02-18T05:56:11;-0.30;99.90
46283;DHT22;32017;43.700;11.820;2023-02-18T05:58:31;-0.40;99.90
46283;DHT22;32017;43.700;11.820;2023-02-18T06:00:51;-0.30;99.90
46283;DHT22;32017;43.700;11.820;2023-02-18T06:03:11;-0.20;99.90
46283;DHT22;32017;43.700;11.820;2023-02-18T06:05:31;-0.30;99.90
46283;DHT22;32017;43.700;11.820;2023-02-18T06:07:51;-0.20;99.90
46283;DHT22;32017;43.700;11.820;2023-02-18T06:10:11;-0.20;99.90
46283;DHT22;32017;43.700;11.820;2023-02-18T06:12:31;-0.10;99.90
46283;DHT22;32017;43.700;11.820;2023-02-18T06:14:51;-0.10;99.90
46283;DHT22;32017;43.700;11.820;2023-02-18T06:17:12;0.00;99.90
46283;DHT22;32017;43.700;11.820;2023-02-18T06:19:32;-0.10;99.90
46283;DHT22;32017;43.700;11.820;2023-02-18T06:21:52;-0.10;99.90
46283;DHT22;32017;43.700;11.820;2023-02-18T06:24:12;-0.10;99.90
46283;DHT22;32017;43.700;11.820;2023-02-18T06:26:32;-0.40;99.90
46283;DHT22;32017;43.700;11.820;2023-02-18T06:28:53;-0.50;99.90
46283;DHT22;32017;43.700;11.820;2023-02-18T06:31:13;-0.40;99.90
46283;DHT22;32017;43.700;11.820;2023-02-18T06:33:33;-0.40;99.90
46283;DHT22;32017;43.700;11.820;2023-02-18T06:35:55;-0.40;99.90
46283;DHT22;32017;43.700;11.820;2023-02-18T06:38:16;-0.30;99.90
46283;DHT22;32017;43.700;11.820;2023-02-18T06:40:36;-0.30;99.90
46283;DHT22;32017;43.700;11.820;2023-02-18T06:42:56;-0.30;99.90
46283;DHT22;32017;43.700;11.820;2023-02-18T06:45:16;-0.20;99.90
46283;DHT22;32017;43.700;11.820;2023-02-18T06:47:36;-0.40;99.90
46283;DHT22;32017;43.700;11.820;2023-02-18T06:49:56;-0.40;99.90
46283;DHT22;32017;43.700;11.820;2023-02-18T06:52:16;-0.40;99.90
46283;DHT22;32017;43.700;11.820;2023-02-18T06:54:36;-0.40;99.90
46283;DHT22;32017;43.700;11.820;2023-02-18T06:56:55;-0.20;99.90
46283;DHT22;32017;43.700;11.820;2023-02-18T06:59:15;-0.10;99.90
46283;DHT22;32017;43.700;11.820;2023-02-18T07:01:35;-0.10;99.90
46283;DHT22;32017;43.700;11.820;2023-02-18T07:03:55;0.00;99.90
46283;DHT22;32017;43.700;11.820;2023-02-18T07:06:16;0.00;99.90
46283;DHT22;32017;43.700;11.820;2023-02-18T07:08:35;0.10;99.90
46283;DHT22;32017;43.700;11.820;2023-02-18T07:10:56;0.10;99.90
46283;DHT22;32017;43.700;11.820;2023-02-18T07:13:15;0.30;99.90
46283;DHT22;32017;43.700;11.820;2023-02-18T07:15:36;0.20;99.90
46283;DHT22;32017;43.700;11.820;2023-02-18T07:17:57;0.30;99.90
46283;DHT22;32017;43.700;11.820;2023-02-18T07:20:18;0.20;99.90
46283;DHT22;32017;43.700;11.820;2023-02-18T07:22:37;0.10;99.90
46283;DHT22;32017;43.700;11.820;2023-02-18T07:24:58;0.20;99.90
46283;DHT22;32017;43.700;11.820;2023-02-18T07:27:18;0.20;99.90
46283;DHT22;32017;43.700;11.820;2023-02-18T07:29:38;0.10;99.90
46283;DHT22;32017;43.700;11.820;2023-02-18T07:31:58;0.20;99.90
46283;DHT22;32017;43.700;11.820;2023-02-18T07:34:19;0.30;99.90
46283;DHT22;32017;43.700;11.820;2023-02-18T07:36:39;0.30;99.90
46283;DHT22;32017;43.700;11.820;2023-02-18T07:38:59;0.40;99.90
46283;DHT22;32017;43.700;11.820;2023-02-18T07:41:21;0.40;99.90
46283;DHT22;32017;43.700;11.820;2023-02-18T07:43:41;0.50;99.90
46283;DHT22;32017;43.700;11.820;2023-02-18T07:46:05;0.70;99.90
46283;DHT22;32017;43.700;11.820;2023-02-18T07:48:24;0.80;99.90
46283;DHT22;32017;43.700;11.820;2023-02-18T07:50:45;1.00;99.90
46283;DHT22;32017;43.700;11.820;2023-02-18T07:53:05;1.00;99.90
46283;DHT22;32017;43.700;11.820;2023-02-18T07:55:25;1.10;99.90
46283;DHT22;32017;43.700;11.820;2023-02-18T07:58:05;1.10;99.90
46283;DHT22;32017;43.700;11.820;2023-02-18T08:00:25;1.10;99.90
46283;DHT22;32017;43.700;11.820;2023-02-18T08:02:45;1.20;99.90
46283;DHT22;32017;43.700;11.820;2023-02-18T08:05:05;1.30;99.90
46283;DHT22;32017;43.700;11.820;2023-02-18T08:07:25;1.50;99.90
46283;DHT22;32017;43.700;11.820;2023-02-18T08:09:45;1.40;99.90
46283;DHT22;32017;43.700;11.820;2023-02-18T08:12:05;1.60;99.90
46283;DHT22;32017;43.700;11.820;2023-02-18T08:14:24;1.90;99.90
46283;DHT22;32017;43.700;11.820;2023-02-18T08:16:45;1.90;99.90
46283;DHT22;32017;43.700;11.820;2023-02-18T08:19:05;2.00;99.90
46283;DHT22;32017;43.700;11.820;2023-02-18T08:21:25;2.10;99.90
46283;DHT22;32017;43.700;11.820;2023-02-18T08:23:45;2.30;99.90
46283;DHT22;32017;43.700;11.820;2023-02-18T08:26:06;2.50;99.90
46283;DHT22;32017;43.700;11.820;2023-02-18T08:28:26;2.60;99.90
46283;DHT22;32017;43.700;11.820;2023-02-18T08:30:47;2.60;99.90
46283;DHT22;32017;43.700;11.820;2023-02-18T08:33:07;2.60;99.90
46283;DHT22;32017;43.700;11.820;2023-02-18T08:35:27;2.70;99.90
46283;DHT22;32017;43.700;11.820;2023-02-18T08:37:47;2.90;99.90
46283;DHT22;32017;43.700;11.820;2023-02-18T08:40:13;2.90;99.90
46283;DHT22;32017;43.700;11.820;2023-02-18T08:42:33;3.20;99.90
46283;DHT22;32017;43.700;11.820;2023-02-18T08:44:52;3.20;99.90
46283;DHT22;32017;43.700;11.820;2023-02-18T08:47:12;3.50;99.90
46283;DHT22;32017;43.700;11.820;2023-02-18T08:49:53;3.90;99.90
46283;DHT22;32017;43.700;11.820;2023-02-18T08:52:12;4.00;99.90
46283;DHT22;32017;43.700;11.820;2023-02-18T08:54:32;4.20;99.90
46283;DHT22;32017;43.700;11.820;2023-02-18T08:56:56;4.90;99.90
46283;DHT22;32017;43.700;11.820;2023-02-18T08:59:18;4.70;99.90
46283;DHT22;32017;43.700;11.820;2023-02-18T09:01:38;4.80;99.90
46283;DHT22;32017;43.700;11.820;2023-02-18T09:03:58;5.10;99.90
46283;DHT22;32017;43.700;11.820;2023-02-18T09:06:18;5.50;99.90
46283;DHT22;32017;43.700;11.820;2023-02-18T09:08:38;6.00;99.90
46283;DHT22;32017;43.700;11.820;2023-02-18T09:11:00;6.10;99.90
46283;DHT22;32017;43.700;11.820;2023-02-18T09:13:20;6.30;99.90
46283;DHT22;32017;43.700;11.820;2023-02-18T09:15:40;6.60;99.90
46283;DHT22;32017;43.700;11.820;2023-02-18T09:18:00;6.60;99.90
46283;DHT22;32017;43.700;11.820;2023-02-18T09:20:21;7.00;99.90
46283;DHT22;32017;43.700;11.820;2023-02-18T09:22:41;7.20;99.90
46283;DHT22;32017;43.700;11.820;2023-02-18T09:25:02;7.50;99.90
46283;DHT22;32017;43.700;11.820;2023-02-18T09:27:22;7.70;99.90
46283;DHT22;32017;43.700;11.820;2023-02-18T09:29:42;7.60;99.90
46283;DHT22;32017;43.700;11.820;2023-02-18T09:32:03;7.70;99.90
46283;DHT22;32017;43.700;11.820;2023-02-18T09:34:24;8.00;99.90
46283;DHT22;32017;43.700;11.820;2023-02-18T09:36:44;8.10;99.90
46283;DHT22;32017;43.700;11.820;2023-02-18T09:39:07;8.20;99.90
46283;DHT22;32017;43.700;11.820;2023-02-18T09:41:36;8.60;99.90
46283;DHT22;32017;43.700;11.820;2023-02-18T09:44:08;8.70;99.90
46283;DHT22;32017;43.700;11.820;2023-02-18T09:46:35;8.60;99.90
46283;DHT22;32017;43.700;11.820;2023-02-18T09:48:56;8.60;99.90
46283;DHT22;32017;43.700;11.820;2023-02-18T09:51:17;8.70;99.90
46283;DHT22;32017;43.700;11.820;2023-02-18T09:53:38;8.70;99.90
46283;DHT22;32017;43.700;11.820;2023-02-18T09:55:59;8.90;99.90
46283;DHT22;32017;43.700;11.820;2023-02-18T09:58:29;9.00;99.90
46283;DHT22;32017;43.700;11.820;2023-02-18T10:03:20;9.50;99.90
46283;DHT22;32017;43.700;11.820;2023-02-18T10:06:05;9.90;99.90
46283;DHT22;32017;43.700;11.820;2023-02-18T10:08:28;10.20;99.90
46283;DHT22;32017;43.700;11.820;2023-02-18T10:10:48;10.30;99.90
46283;DHT22;32017;43.700;11.820;2023-02-18T10:13:12;10.40;99.90
46283;DHT22;32017;43.700;11.820;2023-02-18T10:15:33;11.00;99.90
46283;DHT22;32017;43.700;11.820;2023-02-18T10:17:55;11.00;99.90
46283;DHT22;32017;43.700;11.820;2023-02-18T10:20:20;11.60;99.90
46283;DHT22;32017;43.700;11.820;2023-02-18T10:22:41;11.90;99.90
46283;DHT22;32017;43.700;11.820;2023-02-18T10:25:05;11.80;99.90
46283;DHT22;32017;43.700;11.820;2023-02-18T10:27:27;11.80;99.90
46283;DHT22;32017;43.700;11.820;2023-02-18T10:29:47;12.30;99.90
46283;DHT22;32017;43.700;11.820;2023-02-18T10:48:16;12.60;99.90
46283;DHT22;32017;43.700;11.820;2023-02-18T10:50:43;12.60;99.90
46283;DHT22;32017;43.700;11.820;2023-02-18T10:55:44;12.90;99.90
46283;DHT22;32017;43.700;11.820;2023-02-18T10:58:34;13.00;99.90
46283;DHT22;32017;43.700;11.820;2023-02-18T11:00:54;13.20;99.90
46283;DHT22;32017;43.700;11.820;2023-02-18T11:03:26;13.10;99.90
46283;DHT22;32017;43.700;11.820;2023-02-18T11:05:55;13.10;99.90
46283;DHT22;32017;43.700;11.820;2023-02-18T11:08:21;13.30;99.90
46283;DHT22;32017;43.700;11.820;2023-02-18T11:10:44;13.10;99.90
46283;DHT22;32017;43.700;11.820;2023-02-18T11:13:06;13.10;99.90
46283;DHT22;32017;43.700;11.820;2023-02-18T11:15:28;12.80;99.90
46283;DHT22;32017;43.700;11.820;2023-02-18T11:17:51;12.50;99.90
46283;DHT22;32017;43.700;11.820;2023-02-18T11:20:35;12.50;99.90
46283;DHT22;32017;43.700;11.820;2023-02-18T11:25:25;12.20;99.90
46283;DHT22;32017;43.700;11.820;2023-02-18T11:27:54;12.30;99.90
46283;DHT22;32017;43.700;11.820;2023-02-18T11:32:37;12.50;99.90
46283;DHT22;32017;43.700;11.820;2023-02-18T11:34:57;12.70;99.90
46283;DHT22;32017;43.700;11.820;2023-02-18T11:37:19;12.70;99.90
46283;DHT22;32017;43.700;11.820;2023-02-18T11:39:44;12.50;99.90
46283;DHT22;32017;43.700;11.820;2023-02-18T11:42:05;12.60;99.90
46283;DHT22;32017;43.700;11.820;2023-02-18T11:44:39;12.80;99.90
46283;DHT22;32017;43.700;11.820;2023-02-18T11:49:26;12.80;99.90
46283;DHT22;32017;43.700;11.820;2023-02-18T11:51:48;12.90;99.90
46283;DHT22;32017;43.700;11.820;2023-02-18T11:56:57;13.00;99.90
46283;DHT22;32017;43.700;11.820;2023-02-18T11:59:17;13.00;99.90
46283;DHT22;32017;43.700;11.820;2023-02-18T12:01:46;13.10;99.90
46283;DHT22;32017;43.700;11.820;2023-02-18T12:04:15;13.20;99.90
46283;DHT22;32017;43.700;11.820;2023-02-18T12:06:49;13.30;99.90
46283;DHT22;32017;43.700;11.820;2023-02-18T12:09:27;13.20;99.90
46283;DHT22;32017;43.700;11.820;2023-02-18T12:11:57;13.10;99.90
46283;DHT22;32017;43.700;11.820;2023-02-18T12:14:22;13.20;99.90
46283;DHT22;32017;43.700;11.820;2023-02-18T12:42:49;13.10;99.90
46283;DHT22;32017;43.700;11.820;2023-02-18T13:06:41;13.60;99.90
46283;DHT22;32017;43.700;11.820;2023-02-18T13:09:32;14.00;99.90
46283;DHT22;32017;43.700;11.820;2023-02-18T13:12:02;13.90;99.90
46283;DHT22;32017;43.700;11.820;2023-02-18T13:14:30;13.80;99.90
46283;DHT22;32017;43.700;11.820;2023-02-18T13:16:54;13.40;99.90
46283;DHT22;32017;43.700;11.820;2023-02-18T13:19:45;13.60;99.90
46283;DHT22;32017;43.700;11.820;2023-02-18T13:22:09;13.80;99.90
46283;DHT22;32017;43.700;11.820;2023-02-18T13:24:38;13.90;99.90
46283;DHT22;32017;43.700;11.820;2023-02-18T13:35:59;12.70;99.90
46283;DHT22;32017;43.700;11.820;2023-02-18T13:38:50;13.00;99.90
46283;DHT22;32017;43.700;11.820;2023-02-18T13:41:12;13.30;99.90
46283;DHT22;32017;43.700;11.820;2023-02-18T13:43:34;13.50;99.90
46283;DHT22;32017;43.700;11.820;2023-02-18T13:46:13;13.70;99.90
46283;DHT22;32017;43.700;11.820;2023-02-18T13:51:03;13.50;99.90
46283;DHT22;32017;43.700;11.820;2023-02-18T13:53:24;13.90;99.90
46283;DHT22;32017;43.700;11.820;2023-02-18T13:56:00;13.60;99.90
46283;DHT22;32017;43.700;11.820;2023-02-18T13:58:23;13.20;99.90
46283;DHT22;32017;43.700;11.820;2023-02-18T14:00:52;13.40;99.90
46283;DHT22;32017;43.700;11.820;2023-02-18T14:05:55;13.80;99.90
46283;DHT22;32017;43.700;11.820;2023-02-18T14:16:21;13.20;99.90
46283;DHT22;32017;43.700;11.820;2023-02-18T14:28:35;12.30;99.90
46283;DHT22;32017;43.700;11.820;2023-02-18T14:30:55;12.20;99.90
46283;DHT22;32017;43.700;11.820;2023-02-18T14:33:18;12.10;99.90
46283;DHT22;32017;43.700;11.820;2023-02-18T14:35:59;12.00;99.90
46283;DHT22;32017;43.700;11.820;2023-02-18T14:49:31;11.80;99.90
46283;DHT22;32017;43.700;11.820;2023-02-18T14:51:56;11.80;99.90
46283;DHT22;32017;43.700;11.820;2023-02-18T14:54:21;11.80;99.90
46283;DHT22;32017;43.700;11.820;2023-02-18T14:59:11;11.70;99.90
46283;DHT22;32017;43.700;11.820;2023-02-18T15:01:35;11.70;99.90
46283;DHT22;32017;43.700;11.820;2023-02-18T15:03:56;11.70;99.90
46283;DHT22;32017;43.700;11.820;2023-02-18T15:06:36;11.60;99.90
46283;DHT22;32017;43.700;11.820;2023-02-18T15:08:58;11.60;99.90
46283;DHT22;32017;43.700;11.820;2023-02-18T15:11:20;11.50;99.90
46283;DHT22;32017;43.700;11.820;2023-02-18T15:13:41;11.50;99.90
46283;DHT22;32017;43.700;11.820;2023-02-18T15:16:07;11.40;99.90
46283;DHT22;32017;43.700;11.820;2023-02-18T15:18:39;11.30;99.90
46283;DHT22;32017;43.700;11.820;2023-02-18T15:21:05;11.20;99.90
46283;DHT22;32017;43.700;11.820;2023-02-18T15:23:25;11.20;99.90
46283;DHT22;32017;43.700;11.820;2023-02-18T15:25:49;11.20;99.90
46283;DHT22;32017;43.700;11.820;2023-02-18T15:28:58;11.20;99.90
46283;DHT22;32017;43.700;11.820;2023-02-18T15:31:23;11.10;99.90
46283;DHT22;32017;43.700;11.820;2023-02-18T15:33:46;11.00;99.90
46283;DHT22;32017;43.700;11.820;2023-02-18T15:36:12;10.90;99.90
46283;DHT22;32017;43.700;11.820;2023-02-18T15:38:32;10.90;99.90
46283;DHT22;32017;43.700;11.820;2023-02-18T15:40:54;10.80;99.90
46283;DHT22;32017;43.700;11.820;2023-02-18T15:43:24;10.80;99.90
46283;DHT22;32017;43.700;11.820;2023-02-18T15:45:46;10.70;99.90
46283;DHT22;32017;43.700;11.820;2023-02-18T15:48:21;10.70;99.90
46283;DHT22;32017;43.700;11.820;2023-02-18T15:50:48;10.70;99.90
46283;DHT22;32017;43.700;11.820;2023-02-18T15:53:14;10.60;99.90
46283;DHT22;32017;43.700;11.820;2023-02-18T15:55:36;10.60;99.90
46283;DHT22;32017;43.700;11.820;2023-02-18T15:58:04;10.50;99.90
46283;DHT22;32017;43.700;11.820;2023-02-18T16:00:40;10.50;99.90
46283;DHT22;32017;43.700;11.820;2023-02-18T16:03:12;10.50;99.90
46283;DHT22;32017;43.700;11.820;2023-02-18T16:05:36;10.50;99.90
46283;DHT22;32017;43.700;11.820;2023-02-18T16:08:05;10.40;99.90
46283;DHT22;32017;43.700;11.820;2023-02-18T16:12:56;10.40;99.90
46283;DHT22;32017;43.700;11.820;2023-02-18T16:15:30;10.40;99.90
46283;DHT22;32017;43.700;11.820;2023-02-18T16:17:51;10.40;99.90
46283;DHT22;32017;43.700;11.820;2023-02-18T16:20:21;10.40;99.90
46283;DHT22;32017;43.700;11.820;2023-02-18T16:22:44;10.40;99.90
46283;DHT22;32017;43.700;11.820;2023-02-18T16:27:36;10.40;99.90
46283;DHT22;32017;43.700;11.820;2023-02-18T16:30:00;10.40;99.90
46283;DHT22;32017;43.700;11.820;2023-02-18T16:32:21;10.30;99.90
46283;DHT22;32017;43.700;11.820;2023-02-18T16:34:41;10.30;99.90
46283;DHT22;32017;43.700;11.820;2023-02-18T16:37:02;10.30;99.90
46283;DHT22;32017;43.700;11.820;2023-02-18T16:39:41;10.20;99.90
46283;DHT22;32017;43.700;11.820;2023-02-18T16:42:02;10.20;99.90
46283;DHT22;32017;43.700;11.820;2023-02-18T16:44:22;10.20;99.90
46283;DHT22;32017;43.700;11.820;2023-02-18T16:46:47;10.10;99.90
46283;DHT22;32017;43.700;11.820;2023-02-18T16:49:12;10.10;99.90
46283;DHT22;32017;43.700;11.820;2023-02-18T16:51:34;10.00;99.90
46283;DHT22;32017;43.700;11.820;2023-02-18T16:53:54;10.00;99.90
46283;DHT22;32017;43.700;11.820;2023-02-18T16:56:17;10.00;99.90
46283;DHT22;32017;43.700;11.820;2023-02-18T16:58:37;10.00;99.90
46283;DHT22;32017;43.700;11.820;2023-02-18T17:00:57;9.90;99.90
46283;DHT22;32017;43.700;11.820;2023-02-18T17:03:17;9.80;99.90
46283;DHT22;32017;43.700;11.820;2023-02-18T17:05:37;9.80;99.90
46283;DHT22;32017;43.700;11.820;2023-02-18T17:10:30;9.80;99.90
46283;DHT22;32017;43.700;11.820;2023-02-18T17:12:51;9.80;99.90
46283;DHT22;32017;43.700;11.820;2023-02-18T17:15:37;9.80;99.90
46283;DHT22;32017;43.700;11.820;2023-02-18T17:17:58;9.80;99.90
46283;DHT22;32017;43.700;11.820;2023-02-18T17:20:19;9.80;99.90
46283;DHT22;32017;43.700;11.820;2023-02-18T17:22:40;9.70;99.90
46283;DHT22;32017;43.700;11.820;2023-02-18T17:25:01;9.60;99.90
46283;DHT22;32017;43.700;11.820;2023-02-18T17:27:21;9.60;99.90
46283;DHT22;32017;43.700;11.820;2023-02-18T17:29:41;9.60;99.90
46283;DHT22;32017;43.700;11.820;2023-02-18T17:32:04;9.60;99.90
46283;DHT22;32017;43.700;11.820;2023-02-18T17:34:29;9.60;99.90
46283;DHT22;32017;43.700;11.820;2023-02-18T17:36:51;9.60;99.90
46283;DHT22;32017;43.700;11.820;2023-02-18T17:39:12;9.60;99.90
46283;DHT22;32017;43.700;11.820;2023-02-18T17:41:33;9.60;99.90
46283;DHT22;32017;43.700;11.820;2023-02-18T17:43:53;9.50;99.90
46283;DHT22;32017;43.700;11.820;2023-02-18T17:46:15;9.50;99.90
46283;DHT22;32017;43.700;11.820;2023-02-18T17:48:35;9.50;99.90
46283;DHT22;32017;43.700;11.820;2023-02-18T17:50:55;9.40;99.90
46283;DHT22;32017;43.700;11.820;2023-02-18T17:53:16;9.40;99.90
46283;DHT22;32017;43.700;11.820;2023-02-18T17:55:37;9.40;99.90